createdAt,value
2019-06-08T00:02:06.151Z,41.30
2019-06-08T00:04:32.564Z,40.70
2019-06-08T00:06:59.026Z,40.60
2019-06-08T00:11:56.851Z,40.90
2019-06-08T00:14:23.492Z,40.60
2019-06-08T00:19:21.563Z,41.10
2019-06-08T00:24:19.890Z,40.70
2019-06-08T00:26:45.878Z,42.40
2019-06-08T00:29:14.078Z,41.40
2019-06-08T00:41:47.197Z,41.10
2019-06-08T00:44:13.647Z,40.50
2019-06-08T00:46:40.159Z,40.60
2019-06-08T00:51:38.525Z,41.00
2019-06-08T00:56:37.680Z,42.10
2019-06-08T00:59:10.084Z,42.00
2019-06-08T01:01:36.460Z,40.60
2019-06-08T01:04:02.907Z,40.60
2019-06-08T01:06:29.867Z,40.80
2019-06-08T01:08:55.749Z,42.20
2019-06-08T01:11:28.892Z,40.60
2019-06-08T01:13:54.370Z,40.20
2019-06-08T01:18:53.401Z,40.70
2019-06-08T01:21:20.973Z,41.20
2019-06-08T01:26:17.979Z,40.90
2019-06-08T01:28:44.447Z,40.00
2019-06-08T01:31:10.874Z,40.40
2019-06-08T01:33:37.311Z,40.70
2019-06-08T01:36:03.745Z,41.00
2019-06-08T01:38:31.205Z,42.10
2019-06-08T01:40:57.488Z,40.50
2019-06-08T01:50:59.153Z,41.30
2019-06-08T01:53:26.728Z,39.90
2019-06-08T01:55:52.019Z,41.50
2019-06-08T02:00:50.599Z,39.90
2019-06-08T02:03:17.028Z,39.70
2019-06-08T02:05:43.462Z,41.70
2019-06-08T02:08:09.878Z,41.50
2019-06-08T02:13:09.059Z,40.30
2019-06-08T02:15:35.426Z,40.20
2019-06-08T02:18:02.599Z,39.60
2019-06-08T02:20:29.004Z,39.50
2019-06-08T02:25:27.346Z,40.00
2019-06-08T02:27:53.478Z,39.20
2019-06-08T02:30:19.869Z,39.30
2019-06-08T02:32:46.173Z,41.00
2019-06-08T02:42:46.993Z,38.50
2019-06-08T02:45:13.413Z,38.90
2019-06-08T02:47:41.123Z,39.10
2019-06-08T02:52:38.369Z,39.20
2019-06-08T04:20:11.263Z,41.90
2019-06-08T04:22:32.149Z,42.60
2019-06-08T04:24:58.570Z,43.90
2019-06-08T04:27:25.023Z,41.80
2019-06-08T04:32:28.109Z,40.90
2019-06-08T04:34:54.537Z,39.30
2019-06-08T04:37:20.996Z,39.10
2019-06-08T04:39:47.438Z,39.10
2019-06-08T04:44:47.016Z,39.50
2019-06-08T04:47:13.272Z,38.30
2019-06-08T04:54:45.089Z,38.30
2019-06-08T04:57:10.082Z,38.30
2019-06-08T04:59:36.519Z,37.90
2019-06-08T05:04:34.706Z,39.30
2019-06-08T05:07:01.123Z,39.20
2019-06-08T05:09:34.153Z,40.70
2019-06-08T05:12:00.545Z,40.60
2019-06-08T05:14:26.987Z,38.00
2019-06-08T05:16:53.396Z,40.80
2019-06-08T05:19:19.863Z,39.40
2019-06-08T05:21:47.426Z,38.50
2019-06-08T05:24:12.687Z,38.10
2019-06-08T05:26:39.277Z,38.50
2019-06-08T05:29:05.586Z,39.10
2019-06-08T05:34:04.818Z,40.30
2019-06-08T05:46:39.607Z,40.10
2019-06-08T05:49:05.524Z,40.10
2019-06-08T05:51:31.752Z,39.20
2019-06-08T05:53:58.156Z,38.30
2019-06-08T05:58:55.337Z,38.90
2019-06-08T06:01:21.782Z,40.20
2019-06-08T06:13:54.204Z,38.40
2019-06-08T06:16:20.656Z,39.00
2019-06-08T06:26:23.400Z,38.90
2019-06-08T06:28:49.813Z,39.10
2019-06-08T06:31:16.267Z,38.30
2019-06-08T06:33:43.824Z,38.40
2019-06-08T06:36:09.100Z,40.30
2019-06-08T06:38:35.536Z,40.70
2019-06-08T06:41:04.260Z,38.80
2019-06-08T06:43:30.688Z,40.20
2019-06-08T06:45:57.133Z,40.10
2019-06-08T06:53:26.518Z,39.40
2019-06-08T06:55:53.330Z,37.40
2019-06-08T06:58:19.361Z,38.80
2019-06-08T07:03:22.237Z,37.50
2019-06-08T07:08:20.457Z,38.10
2019-06-08T07:15:54.139Z,39.60
2019-06-08T07:18:22.129Z,37.60
2019-06-08T07:20:48.549Z,38.10
2019-06-08T07:23:22.157Z,37.50
2019-06-08T07:25:48.597Z,37.40
2019-06-08T07:28:15.048Z,38.40
2019-06-08T07:30:41.472Z,38.90
2019-06-08T07:38:11.002Z,37.20
2019-06-08T07:40:37.413Z,38.70
2019-06-08T07:43:04.261Z,36.70
2019-06-08T07:48:03.508Z,38.00
2019-06-08T07:53:02.083Z,37.30
2019-06-08T07:58:04.180Z,37.90
2019-06-08T08:00:30.680Z,39.30
2019-06-08T08:02:58.224Z,37.30
2019-06-08T08:05:28.208Z,38.00
2019-06-08T08:12:58.928Z,38.80
2019-06-08T08:15:24.789Z,38.70
2019-06-08T08:20:22.960Z,38.50
2019-06-08T08:22:53.976Z,36.30
2019-06-08T08:27:53.418Z,38.10
2019-06-08T08:30:20.335Z,38.70
2019-06-08T08:32:44.973Z,38.90
2019-06-08T08:37:43.776Z,37.90
2019-06-08T08:40:17.827Z,38.80
2019-06-08T08:42:42.802Z,38.80
2019-06-08T08:45:09.268Z,39.20
2019-06-08T08:50:08.233Z,38.20
2019-06-08T08:52:41.048Z,38.60
2019-06-08T08:57:41.610Z,36.50
2019-06-08T09:00:05.369Z,36.80
2019-06-08T09:10:10.765Z,39.70
2019-06-08T09:12:33.779Z,39.80
2019-06-08T09:15:01.973Z,37.60
2019-06-08T09:17:27.969Z,39.70
2019-06-08T09:22:24.641Z,36.90
2019-06-08T09:27:22.609Z,37.70
2019-06-08T09:29:53.364Z,37.20
2019-06-08T09:37:22.364Z,37.40
2019-06-08T09:44:53.810Z,36.90
2019-06-08T09:47:18.654Z,37.90
2019-06-08T09:49:45.099Z,38.00
2019-06-08T09:52:11.552Z,37.00
2019-06-08T09:54:38.479Z,39.30
2019-06-08T09:57:10.332Z,38.80
2019-06-08T09:59:38.581Z,38.40
2019-06-08T10:02:08.749Z,37.70
2019-06-08T10:09:34.789Z,37.90
2019-06-08T10:12:03.394Z,37.60
2019-06-08T10:14:28.207Z,37.20
2019-06-08T10:16:54.164Z,37.50
2019-06-08T10:19:20.537Z,37.10
2019-06-08T10:21:48.172Z,38.70
2019-06-08T10:24:13.514Z,36.90
2019-06-08T10:26:40.462Z,36.40
2019-06-08T10:29:09.899Z,37.20
2019-06-08T10:31:39.855Z,36.90
2019-06-08T10:44:08.569Z,38.20
2019-06-08T10:46:33.873Z,37.90
2019-06-08T10:54:04.408Z,37.80
2019-06-08T10:56:34.319Z,36.90
2019-06-08T11:04:05.462Z,35.90
2019-06-08T11:06:34.376Z,37.40
2019-06-08T11:09:04.262Z,37.00
2019-06-08T11:11:28.515Z,36.70
2019-06-08T11:13:53.457Z,36.30
2019-06-08T11:16:19.910Z,37.00
2019-06-08T11:18:50.553Z,38.70
2019-06-08T11:21:13.074Z,38.70
2019-06-08T11:26:19.696Z,36.30
2019-06-08T11:28:38.632Z,38.60
2019-06-08T11:31:08.456Z,38.50
2019-06-08T11:36:08.022Z,37.30
2019-06-08T11:38:30.957Z,38.80
2019-06-08T11:40:57.512Z,37.40
2019-06-08T11:43:23.774Z,38.10
2019-06-08T11:45:50.234Z,38.70
2019-06-08T11:48:18.227Z,36.50
2019-06-08T11:50:43.123Z,38.30
2019-06-08T11:53:13.500Z,36.50
2019-06-08T12:00:39.078Z,36.50
2019-06-08T12:03:06.214Z,39.20
2019-06-08T12:05:31.921Z,36.70
2019-06-08T12:07:58.354Z,36.40
2019-06-08T12:10:24.789Z,38.60
2019-06-08T12:12:51.229Z,38.00
2019-06-08T12:15:20.910Z,37.60
2019-06-08T12:20:19.747Z,36.40
2019-06-08T12:22:42.493Z,36.50
2019-06-08T12:25:10.197Z,38.00
2019-06-08T12:27:39.401Z,38.10
2019-06-08T12:30:08.064Z,37.50
2019-06-08T12:32:28.239Z,37.00
2019-06-08T12:40:01.323Z,37.50
2019-06-08T12:42:25.411Z,37.50
2019-06-08T12:44:51.882Z,38.10
2019-06-08T12:47:24.663Z,37.10
2019-06-08T12:52:20.347Z,38.00
2019-06-08T12:54:56.543Z,37.80
2019-06-08T12:57:13.727Z,37.80
2019-06-08T13:02:12.932Z,37.80
2019-06-08T13:04:38.367Z,37.40
2019-06-08T13:07:03.267Z,38.80
2019-06-08T13:09:30.071Z,37.40
2019-06-08T13:11:59.442Z,37.70
2019-06-08T13:14:24.861Z,38.00
2019-06-08T13:16:52.978Z,37.70
2019-06-08T13:19:17.710Z,38.20
2019-06-08T13:21:44.131Z,39.50
2019-06-08T13:24:11.367Z,37.50
2019-06-08T13:26:37.020Z,38.40
2019-06-08T13:29:03.453Z,38.40
2019-06-08T13:36:33.629Z,37.20
2019-06-08T13:39:00.024Z,39.70
2019-06-08T13:41:29.527Z,37.80
2019-06-08T13:43:52.911Z,38.30
2019-06-08T13:46:22.351Z,37.80
2019-06-08T13:48:48.091Z,38.80
2019-06-08T13:51:14.897Z,37.50
2019-06-08T13:53:38.625Z,36.50
2019-06-08T13:56:07.643Z,37.90
2019-06-08T13:58:33.427Z,37.50
2019-06-08T14:06:04.590Z,37.10
2019-06-08T14:08:33.048Z,37.60
2019-06-08T14:13:34.303Z,38.10
2019-06-08T14:18:33.731Z,38.40
2019-06-08T14:20:54.860Z,38.40
2019-06-08T14:23:22.791Z,39.70
2019-06-08T14:28:23.276Z,37.90
2019-06-08T14:30:48.896Z,38.00
2019-06-08T14:35:47.100Z,38.90
2019-06-08T14:40:47.389Z,37.80
2019-06-08T14:43:11.566Z,39.10
2019-06-08T14:53:14.046Z,38.50
2019-06-08T14:55:40.482Z,38.40
2019-06-08T15:00:40.549Z,37.80
2019-06-08T15:05:39.119Z,38.50
2019-06-08T15:08:08.167Z,37.80
2019-06-08T15:10:32.014Z,37.70
2019-06-08T15:12:58.468Z,37.70
2019-06-08T15:15:25.774Z,37.60
2019-06-08T15:17:51.321Z,37.70
2019-06-08T15:20:17.766Z,38.20
2019-06-08T15:22:44.162Z,39.20
2019-06-08T15:32:48.030Z,38.70
2019-06-08T15:35:12.924Z,38.20
2019-06-08T15:40:12.584Z,38.00
2019-06-08T15:42:40.615Z,38.00
2019-06-08T15:45:08.608Z,37.90
2019-06-08T15:47:33.527Z,37.80
2019-06-08T15:49:59.931Z,37.90
2019-06-08T15:52:28.712Z,38.90
2019-06-08T15:55:01.392Z,38.00
2019-06-08T15:57:33.081Z,38.30
2019-06-08T15:59:58.676Z,39.30
2019-06-08T16:02:25.066Z,38.10
2019-06-08T16:04:51.446Z,37.80
2019-06-08T16:09:49.846Z,37.80
2019-06-08T16:12:16.278Z,37.90
2019-06-08T16:17:15.057Z,37.90
2019-06-08T16:19:41.516Z,37.90
2019-06-08T16:22:07.930Z,37.50
2019-06-08T16:24:34.372Z,38.10
2019-06-08T16:27:00.828Z,38.10
2019-06-08T16:34:31.359Z,38.00
2019-06-08T16:36:57.664Z,38.20
2019-06-08T16:41:58.557Z,38.20
2019-06-08T16:49:29.162Z,37.70
2019-06-08T16:54:28.483Z,38.10
2019-06-08T16:57:08.974Z,37.50
2019-06-08T16:59:22.787Z,37.80
2019-06-08T17:01:49.180Z,37.40
2019-06-08T17:04:16.247Z,38.80
2019-06-08T17:06:42.667Z,38.80
2019-06-08T17:09:10.705Z,38.60
2019-06-08T17:11:37.155Z,37.70
2019-06-08T17:16:40.721Z,38.20
2019-06-08T17:21:40.685Z,37.80
2019-06-08T17:26:40.812Z,37.70
2019-06-08T17:29:07.848Z,38.10
2019-06-08T17:34:05.548Z,38.10
2019-06-08T17:36:32.043Z,38.80
2019-06-08T17:38:58.423Z,38.10
2019-06-08T17:41:25.166Z,38.20
2019-06-08T17:56:30.751Z,38.60
2019-06-08T18:01:28.756Z,38.60
2019-06-08T18:06:27.298Z,39.10
2019-06-08T18:11:25.084Z,38.90
2019-06-08T18:13:51.545Z,39.00
2019-06-08T18:16:17.962Z,39.00
2019-06-08T18:18:45.345Z,39.10
2019-06-08T18:21:11.666Z,40.10
2019-06-08T18:23:40.406Z,39.30
2019-06-08T18:26:04.610Z,39.30
2019-06-08T18:28:30.939Z,39.30
2019-06-08T18:30:58.186Z,39.50
2019-06-08T18:33:28.733Z,39.60
2019-06-08T18:35:57.513Z,39.60
2019-06-08T18:48:28.258Z,40.00
2019-06-08T18:50:57.075Z,40.20
2019-06-08T18:53:22.712Z,40.10
2019-06-08T18:55:50.377Z,40.10
2019-06-08T18:58:22.089Z,40.30
2019-06-08T19:00:44.892Z,40.10
2019-06-08T19:03:08.436Z,40.30
2019-06-08T19:08:10.748Z,41.00
2019-06-08T19:10:41.157Z,40.40
2019-06-08T19:13:10.840Z,40.30
2019-06-08T19:18:08.776Z,40.60
2019-06-08T19:23:09.240Z,40.80
2019-06-08T19:25:34.871Z,40.80
2019-06-08T19:28:01.244Z,40.70
2019-06-08T19:30:28.267Z,40.90
2019-06-08T19:32:54.154Z,40.90
2019-06-08T19:35:20.551Z,40.80
2019-06-08T19:37:47.723Z,40.90
2019-06-08T19:40:13.203Z,41.00
2019-06-08T19:42:50.140Z,40.90
2019-06-08T19:50:10.838Z,40.90
2019-06-08T19:52:39.985Z,41.20
2019-06-08T19:55:03.697Z,41.00
2019-06-08T19:57:34.845Z,41.10
2019-06-08T20:00:01.316Z,41.10
2019-06-08T20:05:04.870Z,40.80
2019-06-08T20:07:31.244Z,40.70
2019-06-08T20:09:57.672Z,41.80
2019-06-08T20:12:24.088Z,41.10
2019-06-08T20:17:22.517Z,40.60
2019-06-08T20:19:50.472Z,40.60
2019-06-08T20:22:15.367Z,40.90
2019-06-08T20:24:42.473Z,41.40
2019-06-08T20:27:10.263Z,41.00
2019-06-08T20:29:34.651Z,40.50
2019-06-08T20:32:04.784Z,41.20
2019-06-08T20:34:31.199Z,41.20
2019-06-08T20:39:30.508Z,40.50
2019-06-08T20:44:30.237Z,40.50
2019-06-08T20:46:57.604Z,40.70
2019-06-08T20:49:21.699Z,40.70
2019-06-08T20:51:49.776Z,40.50
2019-06-08T20:54:17.225Z,40.40
2019-06-08T20:56:42.913Z,40.60
2019-06-08T20:59:08.408Z,40.70
2019-06-08T21:01:34.678Z,40.90
2019-06-08T21:04:01.150Z,40.80
2019-06-08T21:06:27.871Z,40.70
2019-06-08T21:08:54.841Z,40.50
2019-06-08T21:11:20.421Z,41.40
2019-06-08T21:13:49.643Z,40.90
2019-06-08T21:16:13.315Z,40.90
2019-06-08T21:18:40.757Z,40.90
2019-06-08T21:21:08.100Z,40.90
2019-06-08T21:23:33.584Z,40.90
2019-06-08T21:26:00.414Z,41.30
2019-06-08T21:28:28.034Z,40.60
2019-06-08T21:30:55.829Z,40.70
2019-06-08T21:33:19.359Z,40.90
2019-06-08T21:35:49.579Z,40.90
2019-06-08T21:38:23.360Z,41.30
2019-06-08T21:40:43.365Z,42.60
2019-06-08T21:48:16.780Z,41.40
2019-06-08T21:53:17.974Z,42.40
2019-06-08T21:55:42.132Z,42.30
2019-06-08T22:03:11.346Z,42.10
2019-06-08T22:05:37.880Z,41.30
2019-06-08T22:08:04.838Z,41.40
2019-06-08T22:10:31.281Z,41.50
2019-06-08T22:12:59.734Z,41.20
2019-06-08T22:17:59.684Z,41.20
2019-06-08T22:25:27.844Z,41.20
2019-06-08T22:27:53.558Z,41.60
2019-06-08T22:30:35.185Z,41.10
2019-06-08T22:32:47.448Z,41.80
2019-06-08T22:35:16.918Z,41.20
2019-06-08T22:37:43.369Z,41.20
2019-06-08T22:40:09.783Z,41.10
2019-06-08T22:47:39.344Z,41.20
2019-06-08T22:50:07.782Z,41.20
2019-06-08T22:55:07.022Z,41.30
2019-06-08T23:00:11.739Z,41.20
2019-06-08T23:02:28.187Z,41.20
2019-06-08T23:10:01.507Z,41.10
2019-06-08T23:12:25.134Z,41.30
2019-06-08T23:17:22.946Z,41.20
2019-06-08T23:22:21.103Z,41.20
2019-06-08T23:24:47.761Z,41.30
2019-06-08T23:27:17.569Z,41.40
2019-06-08T23:29:43.330Z,41.40
2019-06-08T23:32:11.720Z,41.40
2019-06-08T23:39:40.899Z,41.30
2019-06-08T23:42:10.823Z,41.30
2019-06-08T23:44:37.728Z,41.40
2019-06-08T23:52:11.294Z,41.40
2019-06-08T23:57:09.660Z,42.20
2019-06-08T23:59:33.678Z,41.30
